Aérodrome :
LOGIN :

S'inscrire | Disclaimer

   EN    FR    IT 

 










Légende :    VFR   VFR Marginal   IFR   IFR Intensif   IFR Très Intensif
Visi : 
Plafond : 
>= 8 km
>= 3000ft
5 à 8 km
1000 à 3000 ft
1500m à 5 km
500 à 1000 ft
800 à 1500m
200 à 500 ft
< 800m
< 200 ft
Symboles :   Orages  Brouillard  Fortes neiges  Fortes précipitations  Vent > 20 kt
SIGMETs :   Divers  Orages  Givrage  Turbulence  Onde Orograph.  Cendres Volcan.






- Altitude de l'aérodrome : 465 ft
- Code IATA : LEJ


EDDP - Leipzig Halle

DERNIER METAR :
  • 011850Z 09008KT CAVOK 12/10 Q1003 NOSIG

METARs EXPIRÉS :
  • 011820Z 09008KT CAVOK 13/10 Q1003 NOSIG
  • 011750Z 09008KT CAVOK 13/10 Q1003 NOSIG
  • 011720Z 09007KT CAVOK 13/10 Q1003 NOSIG
  • 011650Z 08006KT CAVOK 14/11 Q1003 NOSIG
  • 011620Z 10007KT CAVOK 16/11 Q1003 NOSIG

TAF TAF EDDP
Valide du 01 à 18h jusqu'au 02 à 18h UTC


011700Z 0118/0218 11007KT CAVOK
BECMG 0121/0123 17005KT
BECMG 0205/0207 11006KT
BECMG 0209/0212 08012KT
PROB40
TEMPO 0213/0217 08015G25KT



MET'MAP, la Météo Aéronautique d'un coup d'oeil ! - Copyright ORBIFLY Décembre 2007 - Disclaimer

ORBIFLY MET'MAP TEAM :

Programmation & Développement : Alexandra Zaïnal
Sur une idée originale de : Baudouin d'Aumeries
Assistance à la programmation : Marc-Olivier Méhu
Soutien technique & logistique : Manuel Goepfert

Contact : metmap@orbifly.com




SOURCES & CREDITS :

   NOAA